Maxwell, Virginia
Current Conditions -  °F | °C
As of 2:35 PM on Monday 22 Dec 2014 (Local Time) from KMKJ Reporting Station
Haze Haze  
Wind Chill: 32°   Ceiling: 400
Heat Index: 38°   Visibility: 2mi
Dew Point: 36°   Wind: 8mph
Humidity: 93%   Direction: 90°E
Pressure: 30"   Gusts: NA
Location:  37.0706°N, 81.5072°W
Report Text: KMKJ 221935Z AUTO 09007KT 2SM BR OVC004 03/02 A3000 RMK AO2 T00320021
Loading
Personal Weather Stations






























Interactive Weather Map New forecast layout! Learn more

10-Day Weather Forecast

Advertisements
Track Severe Weather on mobile